Main page
METAR-TAF:

METAR-TAF

Airports :

Laconia Municipal Airport

Laconia, New Hampshire, United States

latitude: 43-34N, longitude: 071-25W, elevation: 544 ft

Current weather observation

The report was made 56 minutes ago, at 22:56 UTC
Wind 8 mph from the East/Northeast
Temperature 36°F
Humidity 93%
Pressure 30.02 in. Hg
Visibility: 10 miles
Broken clouds at a height of 800 ft
Overcast at a height of 1400 ft
light rain

METAR: KLCI 302256Z AUTO 06007KT 10SM -RA BKN008 OVC014 02/01 A3002 RMK AO2 CIG 007V012 SLP172 P0002 T00170011 FZRANO

Time: 19:52 (23:52 UTC)


TAF: missing

Weather observations and forecasts of more than 4000 airports (METAR and TAF reports).

The available stations are represented by yellow and red dots on the map.

Hover mouse over dot to see the name of the station.

Then click to see weather observations and forecasts.

To change the map : click on the green buttons with a black cross to zoom in, on the green button with a dash to zoom out, or on the green arrows for adjacent maps.


METAR-TAF: